createdAt,value
2023-03-17T00:01:21.046Z,4.05
2023-03-17T00:03:50.512Z,3.75
2023-03-17T00:06:24.987Z,4.10
2023-03-17T00:08:53.301Z,3.75
2023-03-17T00:11:23.228Z,4.15
2023-03-17T00:13:51.711Z,3.85
2023-03-17T00:16:22.031Z,4.00
2023-03-17T00:18:51.152Z,3.55
2023-03-17T00:21:23.518Z,3.72
2023-03-17T00:23:52.789Z,3.25
2023-03-17T00:26:23.256Z,3.85
2023-03-17T00:28:52.108Z,3.78
2023-03-17T00:31:23.581Z,3.30
2023-03-17T00:33:53.954Z,3.17
2023-03-17T00:36:24.053Z,3.72
2023-03-17T00:38:52.772Z,3.15
2023-03-17T00:41:22.740Z,3.70
2023-03-17T00:43:51.594Z,3.47
2023-03-17T00:46:23.502Z,3.67
2023-03-17T00:48:51.817Z,3.70
2023-03-17T00:51:20.122Z,3.20
2023-03-17T00:53:48.492Z,3.50
2023-03-17T00:56:19.163Z,3.70
2023-03-17T00:58:49.490Z,3.35
2023-03-17T01:01:18.602Z,3.35
2023-03-17T01:03:47.049Z,3.25
2023-03-17T01:06:16.192Z,3.70
2023-03-17T01:08:45.338Z,3.80
2023-03-17T01:11:18.934Z,3.45
2023-03-17T01:13:48.778Z,3.58
2023-03-17T01:16:17.133Z,3.97
2023-03-17T01:18:45.677Z,3.60
2023-03-17T01:21:14.061Z,3.08
2023-03-17T01:23:43.662Z,3.65
2023-03-17T01:26:12.671Z,3.10
2023-03-17T01:28:40.939Z,3.38
2023-03-17T01:31:10.685Z,3.67
2023-03-17T01:33:39.022Z,3.60
2023-03-17T01:36:08.240Z,2.63
2023-03-17T01:38:36.577Z,3.17
2023-03-17T01:41:05.046Z,3.53
2023-03-17T01:43:33.401Z,3.40
2023-03-17T01:46:29.329Z,3.90
2023-03-17T01:49:23.888Z,3.20
2023-03-17T01:51:56.288Z,2.78
2023-03-17T01:54:28.191Z,3.00
2023-03-17T01:56:58.509Z,3.22
2023-03-17T01:59:29.664Z,3.40
2023-03-17T02:02:02.973Z,2.90
2023-03-17T02:04:32.663Z,3.25
2023-03-17T02:07:01.135Z,3.23
2023-03-17T02:09:31.027Z,3.22
2023-03-17T02:12:01.350Z,3.25
2023-03-17T02:14:30.110Z,3.22
2023-03-17T02:16:59.803Z,3.33
2023-03-17T02:19:28.576Z,3.43
2023-03-17T02:21:59.112Z,3.50
2023-03-17T02:27:00.826Z,3.03
2023-03-17T02:29:29.189Z,3.33
2023-03-17T02:31:57.466Z,3.72
2023-03-17T02:34:25.749Z,1.50
2023-03-17T02:36:54.077Z,3.13
2023-03-17T02:39:23.928Z,2.97
2023-03-17T02:41:53.070Z,3.17
2023-03-17T02:44:21.447Z,2.88
2023-03-17T02:46:49.744Z,3.17
2023-03-17T02:49:18.604Z,3.33
2023-03-17T02:51:47.659Z,3.33
2023-03-17T02:54:15.949Z,3.38
2023-03-17T02:56:45.929Z,3.20
2023-03-17T02:59:14.214Z,3.08
2023-03-17T03:01:42.611Z,3.10
2023-03-17T03:04:11.875Z,3.28
2023-03-17T03:06:42.571Z,3.30
2023-03-17T03:09:11.780Z,2.90
2023-03-17T03:11:40.735Z,3.50
2023-03-17T03:14:10.440Z,3.45
2023-03-17T03:16:38.792Z,3.37
2023-03-17T03:19:07.748Z,3.30
2023-03-17T03:21:36.725Z,3.45
2023-03-17T03:24:05.510Z,2.97
2023-03-17T03:26:33.885Z,3.30
2023-03-17T03:29:02.255Z,3.42
2023-03-17T03:31:32.201Z,3.08
2023-03-17T03:34:00.948Z,3.33
2023-03-17T03:36:29.217Z,3.50
2023-03-17T03:38:57.999Z,3.72
2023-03-17T03:41:26.361Z,3.30
2023-03-17T03:43:54.642Z,3.22
2023-03-17T03:46:22.970Z,3.28
2023-03-17T03:48:52.626Z,3.88
2023-03-17T03:51:20.864Z,3.53
2023-03-17T03:53:49.242Z,3.50
2023-03-17T03:56:17.604Z,3.50
2023-03-17T03:58:45.880Z,2.28
2023-03-17T04:01:14.516Z,3.15
2023-03-17T04:03:42.854Z,3.95
2023-03-17T04:06:12.450Z,3.30
2023-03-17T04:08:40.717Z,3.63
2023-03-17T04:11:09.739Z,2.58
2023-03-17T04:13:38.498Z,3.47
2023-03-17T04:16:07.491Z,3.00
2023-03-17T04:18:36.431Z,3.10
2023-03-17T04:21:04.775Z,3.80
2023-03-17T04:23:34.378Z,3.53
2023-03-17T04:26:04.123Z,2.10
2023-03-17T04:28:32.576Z,3.23
2023-03-17T04:31:00.842Z,3.08
2023-03-17T04:33:29.127Z,3.45
2023-03-17T04:35:58.510Z,2.83
2023-03-17T04:38:26.922Z,3.03
2023-03-17T04:40:56.673Z,3.25
2023-03-17T04:43:25.067Z,2.58
2023-03-17T04:45:53.467Z,3.00
2023-03-17T04:48:21.781Z,3.47
2023-03-17T04:50:50.114Z,2.90
2023-03-17T04:53:18.461Z,3.28
2023-03-17T04:55:47.182Z,3.28
2023-03-17T04:58:29.966Z,3.20
2023-03-17T05:00:59.170Z,2.80
2023-03-17T05:03:28.624Z,3.13
2023-03-17T05:05:57.415Z,2.97
2023-03-17T05:08:26.355Z,3.30
2023-03-17T05:10:54.873Z,3.10
2023-03-17T05:13:25.145Z,3.20
2023-03-17T05:15:55.274Z,2.90
2023-03-17T05:18:24.926Z,3.53
2023-03-17T05:20:53.432Z,3.65
2023-03-17T05:23:22.294Z,3.53
2023-03-17T05:25:51.009Z,2.60
2023-03-17T05:28:19.401Z,3.47
2023-03-17T05:30:49.306Z,3.17
2023-03-17T05:33:18.290Z,4.07
2023-03-17T05:35:46.660Z,3.03
2023-03-17T05:38:15.937Z,3.40
2023-03-17T05:40:44.428Z,3.10
2023-03-17T05:43:12.671Z,2.97
2023-03-17T05:45:41.251Z,2.85
2023-03-17T05:48:12.290Z,4.25
2023-03-17T05:50:41.681Z,3.50
2023-03-17T05:53:10.603Z,3.70
2023-03-17T05:55:39.106Z,3.20
2023-03-17T05:58:07.813Z,3.70
2023-03-17T06:00:36.431Z,3.90
2023-03-17T06:03:05.301Z,3.53
2023-03-17T06:05:35.166Z,3.15
2023-03-17T06:08:05.083Z,3.20
2023-03-17T06:10:34.099Z,3.08
2023-03-17T06:13:03.955Z,3.65
2023-03-17T06:15:33.793Z,3.53
2023-03-17T06:18:02.513Z,3.70
2023-03-17T06:20:31.261Z,3.03
2023-03-17T06:23:04.962Z,3.40
2023-03-17T06:25:34.581Z,4.00
2023-03-17T06:28:03.930Z,3.40
2023-03-17T06:30:32.804Z,3.05
2023-03-17T06:33:01.663Z,3.50
2023-03-17T06:35:30.340Z,3.70
2023-03-17T06:38:00.904Z,4.00
2023-03-17T06:40:31.092Z,3.50
2023-03-17T06:42:59.558Z,3.67
2023-03-17T06:45:27.993Z,3.70
2023-03-17T06:47:56.247Z,3.88
2023-03-17T06:50:24.496Z,3.75
2023-03-17T06:52:52.881Z,3.40
2023-03-17T06:55:22.488Z,3.85
2023-03-17T06:57:51.444Z,1.90
2023-03-17T07:00:21.031Z,3.85
2023-03-17T07:02:49.569Z,3.70
2023-03-17T07:05:18.055Z,3.08
2023-03-17T07:07:46.697Z,3.65
2023-03-17T07:10:15.767Z,3.05
2023-03-17T07:12:45.589Z,3.22
2023-03-17T07:15:13.952Z,3.63
2023-03-17T07:17:42.647Z,3.15
2023-03-17T07:20:12.002Z,3.13
2023-03-17T07:22:40.262Z,2.75
2023-03-17T07:25:09.634Z,3.95
2023-03-17T07:27:38.062Z,4.10
2023-03-17T07:30:09.276Z,2.58
2023-03-17T07:32:37.856Z,3.33
2023-03-17T07:35:07.358Z,3.90
2023-03-17T07:37:35.659Z,3.97
2023-03-17T07:40:04.481Z,3.80
2023-03-17T07:42:34.021Z,3.45
2023-03-17T07:45:02.244Z,2.97
2023-03-17T07:47:31.825Z,3.25
2023-03-17T07:50:00.058Z,4.03
2023-03-17T07:52:28.336Z,3.47
2023-03-17T07:54:58.270Z,3.38
2023-03-17T07:57:27.188Z,3.80
2023-03-17T07:59:55.957Z,3.85
2023-03-17T08:02:24.356Z,2.33
2023-03-17T08:04:54.689Z,3.30
2023-03-17T08:07:22.926Z,2.92
2023-03-17T08:09:51.228Z,3.30
2023-03-17T08:12:20.130Z,3.63
2023-03-17T08:14:48.552Z,2.45
2023-03-17T08:17:16.993Z,2.38
2023-03-17T08:19:45.238Z,3.30
2023-03-17T08:22:14.988Z,2.50
2023-03-17T08:24:43.317Z,2.93
2023-03-17T08:27:11.756Z,3.30
2023-03-17T08:29:40.319Z,3.03
2023-03-17T08:32:09.614Z,3.00
2023-03-17T08:34:37.934Z,3.55
2023-03-17T08:37:07.005Z,3.28
2023-03-17T08:39:37.705Z,3.20
2023-03-17T08:42:06.101Z,3.17
2023-03-17T08:44:35.039Z,3.53
2023-03-17T08:47:03.963Z,3.33
2023-03-17T08:49:34.803Z,3.03
2023-03-17T08:52:03.541Z,3.10
2023-03-17T08:54:31.848Z,3.47
2023-03-17T08:57:01.833Z,3.30
2023-03-17T08:59:30.214Z,2.97
2023-03-17T09:01:58.494Z,3.20
2023-03-17T09:04:27.984Z,3.38
2023-03-17T09:07:03.282Z,3.25
2023-03-17T09:09:32.332Z,3.22
2023-03-17T09:12:02.331Z,3.30
2023-03-17T09:14:35.308Z,5.45
2023-03-17T09:17:11.610Z,2.92
2023-03-17T09:19:40.405Z,2.95
2023-03-17T09:22:08.906Z,2.80
2023-03-17T09:24:37.341Z,3.10
2023-03-17T09:27:07.154Z,3.08
2023-03-17T09:29:35.764Z,3.17
2023-03-17T09:32:04.050Z,3.28
2023-03-17T09:34:32.768Z,3.08
2023-03-17T09:37:01.014Z,2.85
2023-03-17T09:39:29.338Z,2.95
2023-03-17T09:42:03.341Z,3.05
2023-03-17T09:44:41.296Z,3.30
2023-03-17T09:47:25.333Z,8.15
2023-03-17T09:49:56.227Z,3.03
2023-03-17T09:52:28.274Z,2.90
2023-03-17T09:54:57.146Z,2.45
2023-03-17T09:57:30.485Z,2.70
2023-03-17T10:00:06.377Z,3.00
2023-03-17T10:02:37.435Z,2.70
2023-03-17T10:05:14.853Z,2.55
2023-03-17T10:07:46.677Z,3.00
2023-03-17T10:10:16.904Z,2.67
2023-03-17T10:12:49.561Z,3.05
2023-03-17T10:15:23.719Z,3.17
2023-03-17T10:17:53.464Z,3.50
2023-03-17T10:20:26.026Z,3.33
2023-03-17T10:22:58.073Z,3.08
2023-03-17T10:25:30.032Z,3.38
2023-03-17T10:28:00.898Z,3.05
2023-03-17T10:30:33.591Z,3.15
2023-03-17T10:33:04.117Z,3.28
2023-03-17T10:35:36.014Z,3.20
2023-03-17T10:38:15.882Z,3.17
2023-03-17T10:40:47.754Z,3.30
2023-03-17T10:43:21.721Z,3.13
2023-03-17T10:46:00.802Z,3.13
2023-03-17T10:48:30.200Z,3.20
2023-03-17T10:50:59.678Z,3.03
2023-03-17T10:53:31.378Z,2.97
2023-03-17T10:56:00.993Z,3.40
2023-03-17T10:58:39.213Z,3.33
2023-03-17T11:01:20.171Z,3.25
2023-03-17T11:03:49.155Z,3.05
2023-03-17T11:06:19.150Z,3.08
2023-03-17T11:08:50.140Z,2.90
2023-03-17T11:11:27.167Z,4.00
2023-03-17T11:14:02.982Z,2.90
2023-03-17T11:16:33.659Z,9.77
2023-03-17T11:19:02.723Z,3.10
2023-03-17T11:21:32.299Z,3.03
2023-03-17T11:24:08.230Z,3.30
2023-03-17T11:26:46.457Z,2.92
2023-03-17T11:29:23.803Z,3.05
2023-03-17T11:31:59.032Z,3.65
2023-03-17T11:34:34.397Z,3.10
2023-03-17T11:37:06.982Z,3.40
2023-03-17T11:39:40.380Z,2.92
2023-03-17T11:42:14.144Z,2.75
2023-03-17T11:45:15.481Z,4.38
2023-03-17T11:48:08.521Z,4.90
2023-03-17T11:50:40.809Z,3.97
2023-03-17T11:53:29.055Z,2.53
2023-03-17T11:56:01.507Z,2.55
2023-03-17T11:58:33.660Z,2.25
2023-03-17T12:01:03.048Z,2.70
2023-03-17T12:03:38.837Z,2.58
2023-03-17T12:06:13.378Z,2.80
2023-03-17T12:08:45.491Z,2.22
2023-03-17T12:11:17.105Z,2.63
2023-03-17T12:13:47.617Z,2.67
2023-03-17T12:18:55.898Z,2.28
2023-03-17T12:21:28.324Z,2.40
2023-03-17T12:24:01.828Z,2.60
2023-03-17T12:26:37.066Z,2.30
2023-03-17T12:29:07.528Z,3.95
2023-03-17T12:34:10.407Z,2.20
2023-03-17T12:36:39.138Z,2.50
2023-03-17T12:39:10.538Z,2.50
2023-03-17T12:42:10.058Z,2.35
2023-03-17T12:44:50.291Z,2.38
2023-03-17T12:47:32.447Z,1.98
2023-03-17T12:50:11.049Z,2.03
2023-03-17T12:52:53.011Z,2.80
2023-03-17T12:55:25.280Z,2.33
2023-03-17T12:58:02.014Z,2.30
2023-03-17T13:00:31.683Z,2.42
2023-03-17T13:03:16.168Z,2.58
2023-03-17T13:05:49.846Z,2.50
2023-03-17T13:08:28.282Z,2.60
2023-03-17T13:11:18.916Z,2.90
2023-03-17T13:13:59.206Z,2.35
2023-03-17T13:16:30.447Z,2.67
2023-03-17T13:19:14.925Z,2.33
2023-03-17T13:21:47.246Z,3.08
2023-03-17T13:24:24.216Z,3.15
2023-03-17T13:26:58.509Z,2.50
2023-03-17T13:29:50.467Z,3.30
2023-03-17T13:32:39.043Z,2.72
2023-03-17T13:35:22.113Z,2.78
2023-03-17T13:38:17.755Z,3.20
2023-03-17T13:40:52.079Z,2.92
2023-03-17T13:43:33.687Z,2.60
2023-03-17T13:46:21.529Z,2.72
2023-03-17T13:48:50.254Z,3.05
2023-03-17T13:51:23.445Z,3.08
2023-03-17T13:53:56.485Z,2.85
2023-03-17T13:56:27.838Z,2.97
2023-03-17T13:59:14.404Z,3.20
2023-03-17T14:01:44.857Z,3.00
2023-03-17T14:06:51.238Z,2.60
2023-03-17T14:09:29.013Z,2.88
2023-03-17T14:11:59.458Z,3.00
2023-03-17T14:17:05.146Z,3.47
2023-03-17T14:19:33.575Z,3.30
2023-03-17T14:22:23.023Z,3.20
2023-03-17T14:24:56.772Z,2.80
2023-03-17T14:27:25.851Z,3.17
2023-03-17T14:29:54.214Z,3.17
2023-03-17T14:32:25.213Z,2.60
2023-03-17T14:34:58.395Z,2.60
2023-03-17T14:37:28.031Z,2.97
2023-03-17T14:39:59.185Z,2.90
2023-03-17T14:42:28.976Z,2.83
2023-03-17T14:45:04.882Z,3.08
2023-03-17T14:47:38.469Z,2.28
2023-03-17T14:50:15.304Z,2.70
2023-03-17T14:52:43.710Z,2.78
2023-03-17T14:55:16.548Z,2.58
2023-03-17T14:57:49.963Z,2.30
2023-03-17T15:00:32.885Z,2.28
2023-03-17T15:03:03.461Z,2.63
2023-03-17T15:05:38.948Z,2.47
2023-03-17T15:08:29.339Z,1.80
2023-03-17T15:11:00.292Z,1.83
2023-03-17T15:13:29.915Z,1.77
2023-03-17T15:15:59.046Z,1.73
2023-03-17T15:18:28.720Z,2.03
2023-03-17T15:20:58.301Z,1.98
2023-03-17T15:23:30.388Z,1.90
2023-03-17T15:26:00.061Z,2.13
2023-03-17T15:28:31.166Z,1.92
2023-03-17T15:31:11.826Z,1.90
2023-03-17T15:33:41.367Z,1.80
2023-03-17T15:36:31.377Z,1.85
2023-03-17T15:39:00.561Z,1.98
2023-03-17T15:41:30.272Z,1.70
2023-03-17T15:43:58.497Z,1.88
2023-03-17T15:46:32.190Z,2.10
2023-03-17T15:49:00.797Z,1.90
2023-03-17T15:51:29.043Z,2.20
2023-03-17T15:53:57.378Z,2.15
2023-03-17T15:56:25.967Z,2.00
2023-03-17T15:58:55.610Z,2.30
2023-03-17T16:01:27.313Z,1.97
2023-03-17T16:03:56.218Z,2.22
2023-03-17T16:06:25.506Z,1.88
2023-03-17T16:08:53.897Z,1.90
2023-03-17T16:11:28.137Z,2.30
2023-03-17T16:13:59.570Z,1.95
2023-03-17T16:16:33.315Z,2.13
2023-03-17T16:19:01.745Z,2.45
2023-03-17T16:21:30.790Z,2.42
2023-03-17T16:23:59.486Z,2.28
2023-03-17T16:26:27.990Z,2.47
2023-03-17T16:28:58.229Z,2.97
2023-03-17T16:31:29.255Z,3.33
2023-03-17T16:33:57.687Z,3.00
2023-03-17T16:36:26.365Z,2.65
2023-03-17T16:38:55.171Z,2.60
2023-03-17T16:41:25.586Z,2.78
2023-03-17T16:43:55.393Z,3.88
2023-03-17T16:46:25.891Z,4.90
2023-03-17T16:51:22.125Z,3.40
2023-03-17T16:53:50.403Z,3.03
2023-03-17T16:56:20.538Z,2.70
2023-03-17T16:58:49.435Z,3.10
2023-03-17T17:01:20.050Z,3.35
2023-03-17T17:03:49.889Z,3.90
2023-03-17T17:06:19.201Z,3.70
2023-03-17T17:08:48.502Z,3.35
2023-03-17T17:11:18.015Z,3.55
2023-03-17T17:13:48.018Z,3.30
2023-03-17T17:16:20.758Z,4.28
2023-03-17T17:18:50.325Z,3.90
2023-03-17T17:21:18.576Z,3.58
2023-03-17T17:23:47.664Z,4.03
2023-03-17T17:26:16.057Z,4.65
2023-03-17T17:28:44.305Z,4.47
2023-03-17T17:31:12.606Z,3.90
2023-03-17T17:33:41.041Z,3.92
2023-03-17T17:36:16.208Z,4.25
2023-03-17T17:38:45.447Z,4.18
2023-03-17T17:41:17.213Z,5.13
2023-03-17T17:43:49.878Z,4.30
2023-03-17T17:46:20.084Z,4.95
2023-03-17T17:48:48.455Z,5.70
2023-03-17T17:51:18.042Z,5.68
2023-03-17T17:53:46.308Z,5.70
2023-03-17T17:56:15.371Z,5.60
2023-03-17T17:58:44.102Z,4.97
2023-03-17T18:01:13.962Z,5.22
2023-03-17T18:03:43.126Z,6.47
2023-03-17T18:06:12.945Z,6.57
2023-03-17T18:08:43.548Z,7.40
2023-03-17T18:11:12.150Z,6.20
2023-03-17T18:13:41.056Z,7.47
2023-03-17T18:16:10.739Z,7.05
2023-03-17T18:18:42.286Z,6.07
2023-03-17T18:21:11.098Z,5.88
2023-03-17T18:23:39.308Z,4.97
2023-03-17T18:26:09.361Z,4.90
2023-03-17T18:28:37.578Z,5.18
2023-03-17T18:31:10.496Z,5.05
2023-03-17T18:33:39.820Z,5.72
2023-03-17T18:36:09.051Z,4.93
2023-03-17T18:38:38.373Z,4.95
2023-03-17T18:41:11.100Z,4.78
2023-03-17T18:43:40.969Z,4.70
2023-03-17T18:46:09.232Z,5.13
2023-03-17T18:48:37.479Z,5.05
2023-03-17T18:51:05.895Z,5.20
2023-03-17T18:53:35.313Z,5.00
2023-03-17T18:56:03.623Z,5.35
2023-03-17T18:58:33.277Z,4.90
2023-03-17T19:01:02.467Z,4.97
2023-03-17T19:03:32.201Z,4.90
2023-03-17T19:06:09.057Z,4.32
2023-03-17T19:08:37.403Z,4.05
2023-03-17T19:11:07.483Z,4.10
2023-03-17T19:13:37.494Z,4.70
2023-03-17T19:16:07.578Z,3.90
2023-03-17T19:18:36.686Z,5.05
2023-03-17T19:21:05.282Z,5.10
2023-03-17T19:23:34.691Z,4.03
2023-03-17T19:26:04.700Z,5.00
2023-03-17T19:28:33.054Z,4.25
2023-03-17T19:31:02.698Z,5.05
2023-03-17T19:33:32.504Z,4.47
2023-03-17T19:36:02.726Z,5.63
2023-03-17T19:38:31.207Z,4.90
2023-03-17T19:40:59.874Z,5.32
2023-03-17T19:43:39.892Z,5.80
2023-03-17T19:48:38.393Z,5.13
2023-03-17T19:51:06.895Z,5.35
2023-03-17T19:53:35.279Z,5.35
2023-03-17T19:56:04.244Z,5.45
2023-03-17T19:58:32.476Z,5.15
2023-03-17T20:01:00.748Z,4.90
2023-03-17T20:03:30.523Z,4.70
2023-03-17T20:06:01.032Z,4.57
2023-03-17T20:08:29.339Z,4.68
2023-03-17T20:10:57.589Z,4.88
2023-03-17T20:13:26.193Z,5.22
2023-03-17T20:15:54.857Z,5.35
2023-03-17T20:18:23.683Z,4.97
2023-03-17T20:20:54.605Z,5.53
2023-03-17T20:23:23.412Z,5.45
2023-03-17T20:25:52.693Z,5.68
2023-03-17T20:28:22.429Z,5.30
2023-03-17T20:30:51.439Z,4.60
2023-03-17T20:33:19.733Z,4.75
2023-03-17T20:35:48.339Z,5.07
2023-03-17T20:38:18.583Z,4.90
2023-03-17T20:40:46.926Z,5.22
2023-03-17T20:43:15.242Z,4.70
2023-03-17T20:45:43.602Z,3.92
2023-03-17T20:48:12.002Z,5.03
2023-03-17T20:50:41.265Z,5.32
2023-03-17T20:53:10.418Z,4.72
2023-03-17T20:55:40.141Z,4.72
2023-03-17T20:58:08.450Z,5.03
2023-03-17T21:00:36.811Z,4.47
2023-03-17T21:03:05.550Z,4.78
2023-03-17T21:05:35.626Z,4.28
2023-03-17T21:08:05.470Z,4.38
2023-03-17T21:10:33.940Z,4.40
2023-03-17T21:13:03.622Z,4.97
2023-03-17T21:15:31.923Z,4.60
2023-03-17T21:18:00.198Z,4.68
2023-03-17T21:20:28.637Z,4.35
2023-03-17T21:22:57.299Z,4.75
2023-03-17T21:25:25.618Z,4.70
2023-03-17T21:27:53.943Z,4.72
2023-03-17T21:30:23.624Z,5.03
2023-03-17T21:32:53.568Z,4.97
2023-03-17T21:35:22.004Z,5.43
2023-03-17T21:37:50.474Z,4.43
2023-03-17T21:40:19.587Z,4.53
2023-03-17T21:42:47.933Z,4.53
2023-03-17T21:45:17.856Z,4.38
2023-03-17T21:47:47.485Z,4.70
2023-03-17T21:50:17.754Z,4.70
2023-03-17T21:52:46.101Z,4.70
2023-03-17T21:55:14.574Z,5.38
2023-03-17T21:57:43.040Z,4.80
2023-03-17T22:00:12.471Z,5.60
2023-03-17T22:02:41.878Z,5.55
2023-03-17T22:05:11.808Z,5.60
2023-03-17T22:07:41.065Z,5.60
2023-03-17T22:10:10.670Z,5.32
2023-03-17T22:12:39.796Z,4.75
2023-03-17T22:15:10.236Z,4.95
2023-03-17T22:17:39.717Z,5.00
2023-03-17T22:20:09.080Z,6.30
2023-03-17T22:22:38.895Z,5.65
2023-03-17T22:25:08.190Z,6.57
2023-03-17T22:27:36.464Z,6.63
2023-03-17T22:30:06.410Z,7.43
2023-03-17T22:32:34.759Z,6.90
2023-03-17T22:35:03.157Z,6.45
2023-03-17T22:37:31.737Z,4.85
2023-03-17T22:40:04.011Z,4.75
2023-03-17T22:42:32.323Z,5.10
2023-03-17T22:45:00.694Z,4.70
2023-03-17T22:47:29.104Z,4.45
2023-03-17T22:49:57.428Z,4.95
2023-03-17T22:52:25.729Z,4.30
2023-03-17T22:54:54.035Z,4.95
2023-03-17T22:57:23.813Z,5.40
2023-03-17T22:59:55.157Z,5.25
2023-03-17T23:02:23.538Z,5.18
2023-03-17T23:04:51.902Z,5.13
2023-03-17T23:07:20.424Z,5.00
2023-03-17T23:09:49.056Z,5.18
2023-03-17T23:12:17.836Z,4.65
2023-03-17T23:14:47.549Z,4.93
2023-03-17T23:17:15.882Z,5.03
2023-03-17T23:19:44.141Z,4.72
2023-03-17T23:22:12.798Z,5.00
2023-03-17T23:24:41.035Z,4.75
2023-03-17T23:27:09.636Z,5.30
2023-03-17T23:29:37.912Z,4.35
2023-03-17T23:32:08.296Z,4.63
2023-03-17T23:34:36.640Z,4.75
2023-03-17T23:37:05.029Z,4.53
2023-03-17T23:39:33.547Z,5.18
2023-03-17T23:42:01.873Z,5.05
2023-03-17T23:44:30.161Z,5.68
2023-03-17T23:46:58.426Z,5.90
2023-03-17T23:49:28.210Z,5.60
2023-03-17T23:51:57.078Z,5.22
2023-03-17T23:54:25.590Z,4.72
2023-03-17T23:56:54.146Z,4.72
2023-03-17T23:59:22.660Z,4.97
